AFL732 UWKD-URWW
Flight info
| Callsign | AFL732 |
|---|---|
| Flight time | 1h 12m |
| Altitude | 36000 |
| Route | SONUM1G SONUM T789 DAFOS P135 UROBO R807 RODUN RODUN1J |
| Aircraft | A320/M-SDE3FGHIRWY/LB1 |
Departure
| Time | 2026-05-07 19:37 |
|---|---|
| Airport | Kazan International Airport (UWKD) |
Arrival
| Time | 2026-05-07 20:50 |
|---|---|
| Airport | Volgograd International Airport (URWW) |
| Time | Latitude | Longitude | Altitude | Speed | Heading |
|---|---|---|---|---|---|
| 2026-05-07 19:13 | 55.60784 | 49.29756 | 409 ft | 0 kts | 36° |
| 2026-05-07 19:21 | 55.60779 | 49.29749 | 409 ft | 2 kts | 36° |
| 2026-05-07 19:22 | 55.60767 | 49.29734 | 409 ft | 2 kts | 36° |
| 2026-05-07 19:22 | 55.60760 | 49.29724 | 409 ft | 2 kts | 36° |
| 2026-05-07 19:22 | 55.60746 | 49.29714 | 410 ft | 2 kts | 5° |
| 2026-05-07 19:22 | 55.60731 | 49.29716 | 410 ft | 2 kts | 341° |
| 2026-05-07 19:23 | 55.60717 | 49.29728 | 410 ft | 2 kts | 317° |
| 2026-05-07 19:23 | 55.60712 | 49.29739 | 410 ft | 1 kts | 304° |
| 2026-05-07 19:23 | 55.60709 | 49.29747 | 410 ft | 0 kts | 303° |
| 2026-05-07 19:26 | 55.60724 | 49.29706 | 410 ft | 7 kts | 303° |
| 2026-05-07 19:27 | 55.60763 | 49.29604 | 408 ft | 6 kts | 303° |
| 2026-05-07 19:27 | 55.60779 | 49.29558 | 407 ft | 6 kts | 295° |
| 2026-05-07 19:27 | 55.60802 | 49.29503 | 405 ft | 4 kts | 2° |
| 2026-05-07 19:27 | 55.60817 | 49.29458 | 405 ft | 5 kts | 247° |
| 2026-05-07 19:28 | 55.60789 | 49.29402 | 406 ft | 6 kts | 221° |
| 2026-05-07 19:28 | 55.60749 | 49.29346 | 406 ft | 8 kts | 214° |
| 2026-05-07 19:28 | 55.60699 | 49.29285 | 408 ft | 10 kts | 214° |
| 2026-05-07 19:28 | 55.60622 | 49.29191 | 405 ft | 16 kts | 223° |
| 2026-05-07 19:29 | 55.60580 | 49.28988 | 403 ft | 20 kts | 269° |
| 2026-05-07 19:29 | 55.60591 | 49.28723 | 403 ft | 22 kts | 273° |
| 2026-05-07 19:29 | 55.60653 | 49.28464 | 400 ft | 23 kts | 305° |
| 2026-05-07 19:29 | 55.60752 | 49.28211 | 394 ft | 25 kts | 304° |
| 2026-05-07 19:30 | 55.60853 | 49.27946 | 390 ft | 27 kts | 304° |
| 2026-05-07 19:30 | 55.60968 | 49.27657 | 382 ft | 29 kts | 304° |
| 2026-05-07 19:30 | 55.61087 | 49.27347 | 376 ft | 31 kts | 304° |
| 2026-05-07 19:30 | 55.61197 | 49.27065 | 370 ft | 21 kts | 300° |
| 2026-05-07 19:31 | 55.61176 | 49.26869 | 366 ft | 11 kts | 214° |
| 2026-05-07 19:31 | 55.61167 | 49.26860 | 366 ft | 0 kts | 212° |
| 2026-05-07 19:36 | 55.61167 | 49.26859 | 366 ft | 0 kts | 212° |
| 2026-05-07 19:36 | 55.61145 | 49.26834 | 366 ft | 6 kts | 213° |
| 2026-05-07 19:36 | 55.61092 | 49.26776 | 365 ft | 11 kts | 200° |
| 2026-05-07 19:36 | 55.61022 | 49.26848 | 366 ft | 21 kts | 126° |
| 2026-05-07 19:37 | 55.60785 | 49.27453 | 378 ft | 94 kts | 120° |
| 2026-05-07 19:37 | 55.60297 | 49.28732 | 396 ft | 154 kts | 123° |
| 2026-05-07 19:37 | 55.59641 | 49.30418 | 796 ft | 169 kts | 123° |
| 2026-05-07 19:37 | 55.58981 | 49.32109 | 1507 ft | 169 kts | 123° |
| 2026-05-07 19:38 | 55.58331 | 49.33771 | 2303 ft | 169 kts | 122° |
| 2026-05-07 19:38 | 55.57652 | 49.35537 | 2755 ft | 183 kts | 123° |
| 2026-05-07 19:38 | 55.56885 | 49.37516 | 3096 ft | 206 kts | 123° |
| 2026-05-07 19:38 | 55.56046 | 49.39670 | 3573 ft | 223 kts | 123° |
| 2026-05-07 19:39 | 55.55118 | 49.41965 | 4176 ft | 236 kts | 130° |
| 2026-05-07 19:39 | 55.53742 | 49.43649 | 4661 ft | 256 kts | 160° |
| 2026-05-07 19:39 | 55.51935 | 49.43903 | 5216 ft | 274 kts | 191° |
| 2026-05-07 19:39 | 55.50201 | 49.42426 | 5758 ft | 289 kts | 223° |
| 2026-05-07 19:40 | 55.49057 | 49.39467 | 6284 ft | 303 kts | 246° |
| 2026-05-07 19:40 | 55.48047 | 49.36088 | 6769 ft | 322 kts | 233° |
| 2026-05-07 19:40 | 55.46304 | 49.33499 | 7236 ft | 341 kts | 208° |
| 2026-05-07 19:40 | 55.44065 | 49.31795 | 7703 ft | 359 kts | 200° |
| 2026-05-07 19:41 | 55.41685 | 49.30232 | 7942 ft | 381 kts | 200° |
| 2026-05-07 19:41 | 55.39146 | 49.28464 | 7952 ft | 398 kts | 202° |
| 2026-05-07 19:41 | 55.36596 | 49.26569 | 7948 ft | 401 kts | 202° |
| 2026-05-07 19:41 | 55.33943 | 49.25213 | 7975 ft | 401 kts | 187° |
| 2026-05-07 19:42 | 55.31178 | 49.25280 | 7965 ft | 386 kts | 170° |
| 2026-05-07 19:42 | 55.28659 | 49.26286 | 7952 ft | 364 kts | 164° |
| 2026-05-07 19:42 | 55.26277 | 49.27413 | 7948 ft | 344 kts | 163° |
| 2026-05-07 19:42 | 55.24052 | 49.28489 | 7944 ft | 326 kts | 163° |
| 2026-05-07 19:43 | 55.21912 | 49.29521 | 7940 ft | 308 kts | 163° |
| 2026-05-07 19:43 | 55.19910 | 49.30471 | 7937 ft | 291 kts | 163° |
| 2026-05-07 19:43 | 55.18008 | 49.31368 | 7935 ft | 277 kts | 163° |
| 2026-05-07 19:43 | 55.16119 | 49.31885 | 7922 ft | 280 kts | 185° |
| 2026-05-07 19:44 | 55.14277 | 49.30626 | 8131 ft | 298 kts | 219° |
| 2026-05-07 19:44 | 55.12760 | 49.28038 | 8661 ft | 314 kts | 228° |
| 2026-05-07 19:44 | 55.11255 | 49.25124 | 9123 ft | 332 kts | 228° |
| 2026-05-07 19:44 | 55.09659 | 49.22134 | 9540 ft | 350 kts | 227° |
| 2026-05-07 19:45 | 55.07908 | 49.19006 | 9915 ft | 369 kts | 226° |
| 2026-05-07 19:45 | 55.06054 | 49.15806 | 10228 ft | 387 kts | 225° |
| 2026-05-07 19:45 | 55.04070 | 49.12448 | 10518 ft | 404 kts | 224° |
| 2026-05-07 19:45 | 55.02021 | 49.09018 | 10863 ft | 416 kts | 224° |
| 2026-05-07 19:46 | 54.99939 | 49.05552 | 11558 ft | 418 kts | 224° |
| 2026-05-07 19:46 | 54.97839 | 49.02071 | 12331 ft | 418 kts | 224° |
| 2026-05-07 19:46 | 54.95754 | 48.98620 | 13199 ft | 415 kts | 225° |
| 2026-05-07 19:46 | 54.93695 | 48.95218 | 14050 ft | 412 kts | 225° |
| 2026-05-07 19:47 | 54.91626 | 48.91801 | 14900 ft | 409 kts | 225° |
| 2026-05-07 19:47 | 54.89571 | 48.88415 | 15760 ft | 405 kts | 225° |
| 2026-05-07 19:47 | 54.87552 | 48.85106 | 16624 ft | 402 kts | 225° |
| 2026-05-07 19:47 | 54.85544 | 48.81833 | 17477 ft | 398 kts | 224° |
| 2026-05-07 19:48 | 54.83450 | 48.78767 | 18341 ft | 395 kts | 219° |
| 2026-05-07 19:48 | 54.81242 | 48.76026 | 19131 ft | 393 kts | 214° |
| 2026-05-07 19:48 | 54.78896 | 48.73566 | 19662 ft | 399 kts | 211° |
| 2026-05-07 19:48 | 54.76449 | 48.71161 | 19921 ft | 411 kts | 211° |
| 2026-05-07 19:49 | 54.73925 | 48.68697 | 19935 ft | 429 kts | 211° |
| 2026-05-07 19:49 | 54.71272 | 48.66108 | 19936 ft | 445 kts | 211° |
| 2026-05-07 19:49 | 54.68558 | 48.63460 | 19969 ft | 459 kts | 211° |
| 2026-05-07 19:49 | 54.65762 | 48.60736 | 20510 ft | 459 kts | 211° |
| 2026-05-07 19:50 | 54.63023 | 48.58071 | 21398 ft | 452 kts | 211° |
| 2026-05-07 19:50 | 54.60315 | 48.55437 | 22293 ft | 444 kts | 211° |
| 2026-05-07 19:50 | 54.57653 | 48.52848 | 23193 ft | 436 kts | 211° |
| 2026-05-07 19:50 | 54.55049 | 48.50317 | 24055 ft | 429 kts | 211° |
| 2026-05-07 19:51 | 54.52480 | 48.47821 | 24634 ft | 430 kts | 211° |
| 2026-05-07 19:51 | 54.49873 | 48.45293 | 24918 ft | 437 kts | 211° |
| 2026-05-07 19:51 | 54.47164 | 48.42670 | 24942 ft | 450 kts | 211° |
| 2026-05-07 19:51 | 54.44434 | 48.40031 | 24946 ft | 462 kts | 211° |
| 2026-05-07 19:52 | 54.41601 | 48.37298 | 24950 ft | 473 kts | 211° |
| 2026-05-07 19:52 | 54.38707 | 48.34510 | 25072 ft | 480 kts | 210° |
| 2026-05-07 19:52 | 54.35785 | 48.31688 | 25189 ft | 486 kts | 210° |
| 2026-05-07 19:52 | 54.32841 | 48.28849 | 25294 ft | 492 kts | 210° |
| 2026-05-07 19:53 | 54.29841 | 48.25966 | 25567 ft | 492 kts | 210° |
| 2026-05-07 19:53 | 54.26856 | 48.23188 | 26100 ft | 488 kts | 207° |
| 2026-05-07 19:53 | 54.23862 | 48.20712 | 26628 ft | 483 kts | 204° |
| 2026-05-07 19:53 | 54.20800 | 48.18398 | 27163 ft | 479 kts | 204° |
| 2026-05-07 19:54 | 54.17775 | 48.16091 | 27696 ft | 475 kts | 204° |
| 2026-05-07 19:54 | 54.14790 | 48.13810 | 28229 ft | 471 kts | 204° |
| 2026-05-07 19:54 | 54.11766 | 48.11502 | 28772 ft | 468 kts | 204° |
| 2026-05-07 19:54 | 54.08815 | 48.09255 | 29310 ft | 464 kts | 204° |
| 2026-05-07 19:55 | 54.05863 | 48.07010 | 29847 ft | 461 kts | 204° |
| 2026-05-07 19:55 | 54.02955 | 48.04805 | 30386 ft | 457 kts | 204° |
| 2026-05-07 19:55 | 54.00077 | 48.02626 | 30913 ft | 454 kts | 204° |
| 2026-05-07 19:55 | 53.97188 | 48.00444 | 31444 ft | 450 kts | 204° |
| 2026-05-07 19:56 | 53.94334 | 47.98291 | 31975 ft | 446 kts | 204° |
| 2026-05-07 19:56 | 53.91540 | 47.96186 | 32503 ft | 442 kts | 204° |
| 2026-05-07 19:56 | 53.88740 | 47.94081 | 33034 ft | 438 kts | 204° |
| 2026-05-07 19:56 | 53.85963 | 47.92035 | 33566 ft | 433 kts | 202° |
| 2026-05-07 19:57 | 53.83180 | 47.90240 | 34093 ft | 428 kts | 200° |
| 2026-05-07 19:57 | 53.80373 | 47.88728 | 34618 ft | 423 kts | 196° |
| 2026-05-07 19:57 | 53.77560 | 47.87502 | 35067 ft | 417 kts | 194° |
| 2026-05-07 19:57 | 53.74751 | 47.86375 | 35515 ft | 410 kts | 194° |
| 2026-05-07 19:58 | 53.72032 | 47.85238 | 35833 ft | 408 kts | 196° |
| 2026-05-07 19:58 | 53.69298 | 47.83859 | 35939 ft | 411 kts | 200° |
| 2026-05-07 19:58 | 53.63871 | 47.80353 | 35950 ft | 422 kts | 203° |
| 2026-05-07 19:59 | 53.58413 | 47.76711 | 35951 ft | 424 kts | 203° |
| 2026-05-07 19:59 | 53.52934 | 47.73080 | 35952 ft | 424 kts | 203° |
| 2026-05-07 20:00 | 53.47522 | 47.69316 | 35952 ft | 423 kts | 207° |
| 2026-05-07 20:00 | 53.42291 | 47.64732 | 35952 ft | 422 kts | 210° |
| 2026-05-07 20:01 | 53.37143 | 47.60082 | 35949 ft | 423 kts | 210° |
| 2026-05-07 20:01 | 53.31980 | 47.55433 | 35952 ft | 423 kts | 210° |
| 2026-05-07 20:02 | 53.26798 | 47.50779 | 35952 ft | 423 kts | 210° |
| 2026-05-07 20:02 | 53.21637 | 47.46157 | 35949 ft | 422 kts | 210° |
| 2026-05-07 20:03 | 53.16477 | 47.41554 | 35955 ft | 423 kts | 210° |
| 2026-05-07 20:03 | 53.11309 | 47.36966 | 35957 ft | 422 kts | 210° |
| 2026-05-07 20:04 | 53.06114 | 47.32349 | 35954 ft | 422 kts | 210° |
| 2026-05-07 20:04 | 53.00925 | 47.27731 | 35953 ft | 432 kts | 210° |
| 2026-05-07 20:05 | 52.95537 | 47.22965 | 35956 ft | 444 kts | 209° |
| 2026-05-07 20:05 | 52.90063 | 47.18147 | 35962 ft | 454 kts | 210° |
| 2026-05-07 20:06 | 52.84443 | 47.13238 | 35964 ft | 462 kts | 209° |
| 2026-05-07 20:06 | 52.78702 | 47.08231 | 35956 ft | 470 kts | 209° |
| 2026-05-07 20:07 | 52.72926 | 47.03207 | 35963 ft | 473 kts | 210° |
| 2026-05-07 20:07 | 52.67128 | 46.98169 | 35963 ft | 475 kts | 210° |
| 2026-05-07 20:08 | 52.61309 | 46.93123 | 35969 ft | 477 kts | 210° |
| 2026-05-07 20:08 | 52.55424 | 46.88032 | 35966 ft | 478 kts | 210° |
| 2026-05-07 20:09 | 52.49583 | 46.83001 | 35964 ft | 478 kts | 209° |
| 2026-05-07 20:10 | 52.40729 | 46.75417 | 35963 ft | 479 kts | 209° |
| 2026-05-07 20:10 | 52.34848 | 46.70389 | 35956 ft | 480 kts | 210° |
| 2026-05-07 20:11 | 52.28937 | 46.65347 | 35951 ft | 480 kts | 209° |
| 2026-05-07 20:11 | 52.23035 | 46.60324 | 35949 ft | 480 kts | 209° |
| 2026-05-07 20:12 | 52.17086 | 46.55282 | 35949 ft | 481 kts | 209° |
| 2026-05-07 20:12 | 52.12189 | 46.51152 | 35944 ft | 481 kts | 209° |
| 2026-05-07 20:13 | 52.05276 | 46.45330 | 35939 ft | 480 kts | 209° |
| 2026-05-07 20:13 | 51.99371 | 46.40375 | 35937 ft | 480 kts | 209° |
| 2026-05-07 20:14 | 51.93440 | 46.35418 | 35934 ft | 481 kts | 209° |
| 2026-05-07 20:14 | 51.87521 | 46.30461 | 35935 ft | 482 kts | 208° |
| 2026-05-07 20:15 | 51.81531 | 46.25486 | 35933 ft | 483 kts | 208° |
| 2026-05-07 20:15 | 51.75581 | 46.20562 | 35935 ft | 482 kts | 208° |
| 2026-05-07 20:16 | 51.69590 | 46.15611 | 35932 ft | 483 kts | 208° |
| 2026-05-07 20:16 | 51.63654 | 46.10715 | 35934 ft | 483 kts | 208° |
| 2026-05-07 20:17 | 51.57663 | 46.05790 | 35930 ft | 484 kts | 208° |
| 2026-05-07 20:17 | 51.51633 | 46.01032 | 35928 ft | 485 kts | 207° |
| 2026-05-07 20:18 | 51.45577 | 45.96459 | 35925 ft | 484 kts | 206° |
| 2026-05-07 20:18 | 51.39482 | 45.91848 | 35918 ft | 485 kts | 206° |
| 2026-05-07 20:19 | 51.33420 | 45.87257 | 35932 ft | 485 kts | 206° |
| 2026-05-07 20:19 | 51.27328 | 45.82650 | 35935 ft | 486 kts | 206° |
| 2026-05-07 20:20 | 51.21241 | 45.78059 | 35940 ft | 486 kts | 207° |
| 2026-05-07 20:20 | 51.15119 | 45.73450 | 35945 ft | 486 kts | 207° |
| 2026-05-07 20:21 | 51.09038 | 45.68888 | 35936 ft | 486 kts | 206° |
| 2026-05-07 20:21 | 51.02782 | 45.64785 | 35770 ft | 483 kts | 200° |
| 2026-05-07 20:21 | 50.99666 | 45.63272 | 35433 ft | 468 kts | 196° |
| 2026-05-07 20:22 | 50.96531 | 45.62076 | 34994 ft | 460 kts | 194° |
| 2026-05-07 20:22 | 50.93430 | 45.60980 | 34445 ft | 456 kts | 194° |
| 2026-05-07 20:22 | 50.90344 | 45.59877 | 33970 ft | 451 kts | 194° |
| 2026-05-07 20:22 | 50.87323 | 45.58795 | 33529 ft | 445 kts | 193° |
| 2026-05-07 20:23 | 50.84352 | 45.57731 | 33093 ft | 440 kts | 193° |
| 2026-05-07 20:23 | 50.81389 | 45.56672 | 32765 ft | 432 kts | 193° |
| 2026-05-07 20:23 | 50.78503 | 45.55640 | 32497 ft | 423 kts | 193° |
| 2026-05-07 20:23 | 50.75645 | 45.54637 | 32233 ft | 415 kts | 193° |
| 2026-05-07 20:24 | 50.72853 | 45.53668 | 31988 ft | 407 kts | 193° |
| 2026-05-07 20:24 | 50.67345 | 45.51761 | 31946 ft | 408 kts | 193° |
| 2026-05-07 20:25 | 50.61802 | 45.49836 | 31945 ft | 408 kts | 193° |
| 2026-05-07 20:25 | 50.56290 | 45.47923 | 31943 ft | 409 kts | 193° |
| 2026-05-07 20:26 | 50.50758 | 45.46011 | 31942 ft | 408 kts | 193° |
| 2026-05-07 20:26 | 50.45218 | 45.44094 | 31939 ft | 410 kts | 193° |
| 2026-05-07 20:27 | 50.39677 | 45.42185 | 31937 ft | 411 kts | 193° |
| 2026-05-07 20:27 | 50.34092 | 45.40264 | 31946 ft | 410 kts | 193° |
| 2026-05-07 20:28 | 50.28537 | 45.38359 | 31216 ft | 414 kts | 193° |
| 2026-05-07 20:28 | 50.25737 | 45.37397 | 30441 ft | 419 kts | 193° |
| 2026-05-07 20:28 | 50.22870 | 45.36416 | 29879 ft | 418 kts | 193° |
| 2026-05-07 20:28 | 50.20073 | 45.35462 | 29410 ft | 415 kts | 193° |
| 2026-05-07 20:29 | 50.17270 | 45.34504 | 28927 ft | 412 kts | 192° |
| 2026-05-07 20:29 | 50.14465 | 45.33534 | 28435 ft | 409 kts | 192° |
| 2026-05-07 20:29 | 50.11708 | 45.32581 | 27950 ft | 407 kts | 192° |
| 2026-05-07 20:29 | 50.08989 | 45.31651 | 27478 ft | 404 kts | 192° |
| 2026-05-07 20:30 | 50.06261 | 45.30723 | 26998 ft | 401 kts | 192° |
| 2026-05-07 20:30 | 50.03540 | 45.29800 | 26518 ft | 399 kts | 192° |
| 2026-05-07 20:30 | 50.00873 | 45.28812 | 26036 ft | 397 kts | 195° |
| 2026-05-07 20:30 | 49.98218 | 45.27659 | 25566 ft | 394 kts | 195° |
| 2026-05-07 20:31 | 49.95590 | 45.26492 | 25100 ft | 392 kts | 196° |
| 2026-05-07 20:31 | 49.92977 | 45.25330 | 24373 ft | 395 kts | 196° |
| 2026-05-07 20:31 | 49.90364 | 45.24172 | 23466 ft | 394 kts | 195° |
| 2026-05-07 20:31 | 49.87746 | 45.23018 | 22573 ft | 390 kts | 195° |
| 2026-05-07 20:32 | 49.85170 | 45.21889 | 21690 ft | 386 kts | 195° |
| 2026-05-07 20:32 | 49.82598 | 45.20762 | 20798 ft | 382 kts | 195° |
| 2026-05-07 20:32 | 49.80105 | 45.19670 | 19926 ft | 378 kts | 195° |
| 2026-05-07 20:32 | 49.77607 | 45.18575 | 19046 ft | 373 kts | 195° |
| 2026-05-07 20:33 | 49.75138 | 45.17494 | 18171 ft | 369 kts | 195° |
| 2026-05-07 20:33 | 49.72675 | 45.16414 | 17297 ft | 365 kts | 195° |
| 2026-05-07 20:33 | 49.70365 | 45.15403 | 16470 ft | 361 kts | 195° |
| 2026-05-07 20:33 | 49.67944 | 45.14346 | 15589 ft | 357 kts | 195° |
| 2026-05-07 20:34 | 49.65638 | 45.13163 | 14730 ft | 354 kts | 199° |
| 2026-05-07 20:34 | 49.63352 | 45.11848 | 13865 ft | 350 kts | 199° |
| 2026-05-07 20:34 | 49.61090 | 45.10529 | 12988 ft | 346 kts | 199° |
| 2026-05-07 20:34 | 49.58892 | 45.09248 | 12130 ft | 342 kts | 199° |
| 2026-05-07 20:35 | 49.56663 | 45.07953 | 11253 ft | 339 kts | 200° |
| 2026-05-07 20:35 | 49.54498 | 45.06697 | 10391 ft | 336 kts | 200° |
| 2026-05-07 20:35 | 49.52320 | 45.05436 | 9519 ft | 332 kts | 200° |
| 2026-05-07 20:35 | 49.50206 | 45.04215 | 8662 ft | 328 kts | 200° |
| 2026-05-07 20:36 | 49.48085 | 45.02992 | 7797 ft | 325 kts | 200° |
| 2026-05-07 20:36 | 49.45982 | 45.01779 | 6933 ft | 320 kts | 201° |
| 2026-05-07 20:36 | 49.43951 | 45.00610 | 6331 ft | 307 kts | 201° |
| 2026-05-07 20:36 | 49.42022 | 44.99497 | 6010 ft | 287 kts | 201° |
| 2026-05-07 20:37 | 49.40205 | 44.98450 | 5945 ft | 272 kts | 201° |
| 2026-05-07 20:37 | 49.38417 | 44.97420 | 5942 ft | 274 kts | 201° |
| 2026-05-07 20:37 | 49.36649 | 44.96401 | 5940 ft | 273 kts | 201° |
| 2026-05-07 20:37 | 49.34871 | 44.95379 | 5860 ft | 274 kts | 201° |
| 2026-05-07 20:38 | 49.33095 | 44.94358 | 5737 ft | 274 kts | 201° |
| 2026-05-07 20:38 | 49.31319 | 44.93338 | 5614 ft | 273 kts | 201° |
| 2026-05-07 20:38 | 49.29518 | 44.92305 | 5490 ft | 272 kts | 201° |
| 2026-05-07 20:38 | 49.27768 | 44.91302 | 5367 ft | 271 kts | 201° |
| 2026-05-07 20:39 | 49.25988 | 44.90284 | 5240 ft | 271 kts | 201° |
| 2026-05-07 20:39 | 49.24227 | 44.89278 | 5114 ft | 271 kts | 201° |
| 2026-05-07 20:39 | 49.22487 | 44.88286 | 4989 ft | 270 kts | 201° |
| 2026-05-07 20:39 | 49.20726 | 44.87281 | 4790 ft | 270 kts | 201° |
| 2026-05-07 20:40 | 49.18978 | 44.86286 | 4539 ft | 268 kts | 201° |
| 2026-05-07 20:40 | 49.17229 | 44.85288 | 4167 ft | 269 kts | 201° |
| 2026-05-07 20:40 | 49.15474 | 44.84288 | 3777 ft | 265 kts | 201° |
| 2026-05-07 20:40 | 49.13762 | 44.83313 | 3403 ft | 264 kts | 201° |
| 2026-05-07 20:41 | 49.12039 | 44.82333 | 2962 ft | 265 kts | 201° |
| 2026-05-07 20:41 | 49.10319 | 44.81358 | 2573 ft | 262 kts | 201° |
| 2026-05-07 20:41 | 49.08624 | 44.80397 | 2467 ft | 262 kts | 201° |
| 2026-05-07 20:41 | 49.06920 | 44.79429 | 2457 ft | 263 kts | 202° |
| 2026-05-07 20:42 | 49.05205 | 44.78455 | 2454 ft | 263 kts | 201° |
| 2026-05-07 20:42 | 49.03497 | 44.77488 | 2453 ft | 263 kts | 202° |
| 2026-05-07 20:42 | 49.01766 | 44.76508 | 2454 ft | 262 kts | 202° |
| 2026-05-07 20:42 | 49.00066 | 44.75545 | 2452 ft | 262 kts | 202° |
| 2026-05-07 20:43 | 48.98374 | 44.74589 | 2454 ft | 262 kts | 202° |
| 2026-05-07 20:43 | 48.96660 | 44.73621 | 2455 ft | 261 kts | 202° |
| 2026-05-07 20:43 | 48.94968 | 44.72665 | 2460 ft | 261 kts | 202° |
| 2026-05-07 20:43 | 48.93268 | 44.71705 | 2462 ft | 260 kts | 202° |
| 2026-05-07 20:44 | 48.91563 | 44.70743 | 2466 ft | 260 kts | 202° |
| 2026-05-07 20:44 | 48.89915 | 44.69633 | 2453 ft | 258 kts | 218° |
| 2026-05-07 20:44 | 48.88719 | 44.67676 | 2469 ft | 252 kts | 240° |
| 2026-05-07 20:44 | 48.87933 | 44.65320 | 2474 ft | 251 kts | 250° |
| 2026-05-07 20:45 | 48.87265 | 44.62877 | 2474 ft | 251 kts | 250° |
| 2026-05-07 20:45 | 48.86567 | 44.60453 | 2466 ft | 243 kts | 249° |
| 2026-05-07 20:45 | 48.85876 | 44.58213 | 2459 ft | 228 kts | 248° |
| 2026-05-07 20:45 | 48.85209 | 44.56120 | 2453 ft | 212 kts | 248° |
| 2026-05-07 20:46 | 48.84593 | 44.54207 | 2530 ft | 191 kts | 248° |
| 2026-05-07 20:46 | 48.84052 | 44.52526 | 2501 ft | 164 kts | 249° |
| 2026-05-07 20:46 | 48.83584 | 44.51073 | 2440 ft | 144 kts | 250° |
| 2026-05-07 20:46 | 48.83155 | 44.49719 | 2460 ft | 142 kts | 250° |
| 2026-05-07 20:47 | 48.82725 | 44.48358 | 2328 ft | 142 kts | 250° |
| 2026-05-07 20:47 | 48.82304 | 44.47032 | 2147 ft | 140 kts | 250° |
| 2026-05-07 20:47 | 48.81878 | 44.45693 | 1958 ft | 139 kts | 250° |
| 2026-05-07 20:47 | 48.81462 | 44.44386 | 1772 ft | 137 kts | 250° |
| 2026-05-07 20:48 | 48.81051 | 44.43096 | 1596 ft | 136 kts | 249° |
| 2026-05-07 20:48 | 48.80643 | 44.41811 | 1415 ft | 135 kts | 249° |
| 2026-05-07 20:48 | 48.80236 | 44.40528 | 1235 ft | 134 kts | 248° |
| 2026-05-07 20:48 | 48.79835 | 44.39265 | 1060 ft | 133 kts | 248° |
| 2026-05-07 20:49 | 48.79440 | 44.38020 | 885 ft | 131 kts | 247° |
| 2026-05-07 20:49 | 48.79047 | 44.36783 | 713 ft | 130 kts | 246° |
| 2026-05-07 20:49 | 48.78654 | 44.35542 | 539 ft | 128 kts | 245° |
| 2026-05-07 20:49 | 48.78285 | 44.34374 | 453 ft | 106 kts | 244° |
| 2026-05-07 20:50 | 48.78088 | 44.33754 | 437 ft | 38 kts | 245° |
| 2026-05-07 20:50 | 48.77927 | 44.33227 | 429 ft | 64 kts | 243° |
| 2026-05-07 20:50 | 48.77735 | 44.32641 | 418 ft | 59 kts | 242° |
| 2026-05-07 20:50 | 48.77559 | 44.32094 | 404 ft | 55 kts | 243° |
| 2026-05-07 20:51 | 48.77608 | 44.31768 | 396 ft | 17 kts | 347° |
| 2026-05-07 20:51 | 48.77623 | 44.31778 | 395 ft | 0 kts | 66° |
| 2026-05-07 20:51 | 48.77624 | 44.31782 | 396 ft | 0 kts | 66° |
| 2026-05-07 20:51 | 48.77628 | 44.31791 | 396 ft | 1 kts | 54° |
| 2026-05-07 20:52 | 48.77632 | 44.31799 | 396 ft | 0 kts | 53° |
| 2026-05-07 20:53 | 48.77636 | 44.31807 | 396 ft | 3 kts | 51° |
| 2026-05-07 20:53 | 48.77666 | 44.31863 | 397 ft | 9 kts | 50° |
| 2026-05-07 20:53 | 48.77708 | 44.31967 | 401 ft | 13 kts | 68° |
| 2026-05-07 20:54 | 48.77753 | 44.32121 | 404 ft | 17 kts | 64° |
| 2026-05-07 20:54 | 48.77804 | 44.32274 | 408 ft | 15 kts | 61° |
| 2026-05-07 20:54 | 48.77848 | 44.32418 | 412 ft | 15 kts | 66° |
| 2026-05-07 20:54 | 48.77890 | 44.32566 | 417 ft | 16 kts | 65° |
| 2026-05-07 20:55 | 48.77938 | 44.32731 | 420 ft | 17 kts | 66° |
| 2026-05-07 20:55 | 48.78000 | 44.32901 | 423 ft | 19 kts | 62° |
| 2026-05-07 20:55 | 48.78062 | 44.33095 | 427 ft | 21 kts | 65° |
| 2026-05-07 20:55 | 48.78128 | 44.33303 | 430 ft | 22 kts | 64° |
| 2026-05-07 20:56 | 48.78197 | 44.33518 | 435 ft | 23 kts | 64° |
| 2026-05-07 20:56 | 48.78268 | 44.33746 | 439 ft | 24 kts | 64° |
| 2026-05-07 20:56 | 48.78343 | 44.33977 | 445 ft | 24 kts | 63° |
| 2026-05-07 20:56 | 48.78400 | 44.34153 | 448 ft | 16 kts | 60° |
| 2026-05-07 20:57 | 48.78495 | 44.34188 | 449 ft | 16 kts | 344° |
| 2026-05-07 20:57 | 48.78615 | 44.34148 | 446 ft | 18 kts | 11° |
| 2026-05-07 20:57 | 48.78679 | 44.34292 | 447 ft | 16 kts | 68° |
| 2026-05-07 20:57 | 48.78724 | 44.34454 | 451 ft | 17 kts | 66° |
| 2026-05-07 20:58 | 48.78768 | 44.34632 | 454 ft | 18 kts | 69° |
| 2026-05-07 20:58 | 48.78811 | 44.34810 | 460 ft | 16 kts | 69° |
| 2026-05-07 20:58 | 48.78847 | 44.34952 | 464 ft | 9 kts | 69° |
| 2026-05-07 20:58 | 48.78871 | 44.35046 | 466 ft | 6 kts | 69° |
| 2026-05-07 20:59 | 48.78872 | 44.35050 | 466 ft | 0 kts | 69° |
| 2026-05-07 20:59 | 48.78872 | 44.35051 | 466 ft | 0 kts | 69° |
| 2026-05-07 20:59 | 48.78873 | 44.35052 | 466 ft | 0 kts | 69° |
| 2026-05-07 20:59 | 48.78873 | 44.35054 | 466 ft | 0 kts | 69° |
| 2026-05-07 21:00 | 48.78873 | 44.35055 | 466 ft | 0 kts | 69° |
| 2026-05-07 21:00 | 48.78874 | 44.35057 | 466 ft | 0 kts | 68° |
| 2026-05-07 21:00 | 48.78874 | 44.35058 | 466 ft | 0 kts | 68° |
| 2026-05-07 21:00 | 48.78880 | 44.35072 | 466 ft | 2 kts | 50° |
| 2026-05-07 21:01 | 48.78898 | 44.35098 | 466 ft | 4 kts | 41° |
| 2026-05-07 21:01 | 48.78923 | 44.35143 | 467 ft | 6 kts | 62° |
| 2026-05-07 21:01 | 48.78961 | 44.35181 | 468 ft | 8 kts | 1° |
| 2026-05-07 21:01 | 48.79009 | 44.35158 | 468 ft | 0 kts | 332° |